createdAt,value
2018-08-13T00:00:12.521Z,17.18
2018-08-13T00:02:12.567Z,17.07
2018-08-13T00:04:12.623Z,17.06
2018-08-13T00:05:12.637Z,17.11
2018-08-13T00:06:12.407Z,16.98
2018-08-13T00:07:27.390Z,16.91
2018-08-13T00:08:12.195Z,16.82
2018-08-13T00:09:12.740Z,16.82
2018-08-13T00:10:27.161Z,16.78
2018-08-13T00:11:12.781Z,16.81
2018-08-13T00:12:12.805Z,16.71
2018-08-13T00:13:12.827Z,16.78
2018-08-13T00:14:12.850Z,16.67
2018-08-13T00:15:27.536Z,16.67
2018-08-13T00:16:12.898Z,16.7
2018-08-13T00:17:12.921Z,16.66
2018-08-13T00:18:12.947Z,16.56
2018-08-13T00:19:12.714Z,16.56
2018-08-13T00:20:12.751Z,16.49
2018-08-13T00:21:12.761Z,16.57
2018-08-13T00:22:13.041Z,16.56
2018-08-13T00:23:13.063Z,16.52
2018-08-13T00:24:12.830Z,16.45
2018-08-13T00:25:13.112Z,16.39
2018-08-13T00:26:13.139Z,16.42
2018-08-13T00:27:13.160Z,16.39
2018-08-13T00:29:13.213Z,16.43
2018-08-13T00:30:13.231Z,16.34
2018-08-13T00:31:27.918Z,16.34
2018-08-13T00:32:13.277Z,16.33
2018-08-13T00:34:13.326Z,16.34
2018-08-13T00:35:13.348Z,16.35
2018-08-13T00:36:13.373Z,16.24
2018-08-13T00:37:13.395Z,16.41
2018-08-13T00:38:13.424Z,16.31
2018-08-13T00:39:13.443Z,16.27
2018-08-13T00:40:13.210Z,16.21
2018-08-13T00:41:13.489Z,16.09
2018-08-13T00:42:13.514Z,16.09
2018-08-13T00:43:13.536Z,16.11
2018-08-13T00:44:13.308Z,16.15
2018-08-13T00:45:13.581Z,16.12
2018-08-13T00:46:28.302Z,16.25
2018-08-13T00:48:13.654Z,16.31
2018-08-13T00:49:13.678Z,16.27
2018-08-13T00:50:13.445Z,16.24
2018-08-13T00:51:13.727Z,16.21
2018-08-13T00:52:13.493Z,16.31
2018-08-13T00:53:13.782Z,16.27
2018-08-13T00:54:13.796Z,16.27
2018-08-13T00:55:28.484Z,16.3
2018-08-13T00:56:13.841Z,16.27
2018-08-13T00:57:13.871Z,16.35
2018-08-13T00:58:13.890Z,16.33
2018-08-13T00:59:13.917Z,16.3
2018-08-13T01:00:13.940Z,16.33
2018-08-13T01:01:13.702Z,16.38
2018-08-13T01:02:13.727Z,16.28
2018-08-13T01:03:14.008Z,16.31
2018-08-13T01:04:13.771Z,16.38
2018-08-13T01:05:14.057Z,16.34
2018-08-13T01:06:14.087Z,16.41
2018-08-13T01:07:14.102Z,16.39
2018-08-13T01:08:28.788Z,16.39
2018-08-13T01:09:14.150Z,16.43
2018-08-13T01:10:28.833Z,16.39
2018-08-13T01:11:14.195Z,16.49
2018-08-13T01:12:14.215Z,16.49
2018-08-13T01:13:13.991Z,16.5
2018-08-13T01:14:14.009Z,16.52
2018-08-13T01:15:14.289Z,16.52
2018-08-13T01:17:14.077Z,16.48
2018-08-13T01:18:29.018Z,16.52
2018-08-13T01:19:14.386Z,16.6
2018-08-13T01:20:14.406Z,16.49
2018-08-13T01:22:14.458Z,16.43
2018-08-13T01:23:14.480Z,16.49
2018-08-13T01:24:14.501Z,16.38
2018-08-13T01:25:14.524Z,16.41
2018-08-13T01:26:29.207Z,16.39
2018-08-13T01:28:14.598Z,16.24
2018-08-13T01:29:29.274Z,16.31
2018-08-13T01:30:14.640Z,16.43
2018-08-13T01:31:14.714Z,16.35
2018-08-13T01:32:14.684Z,16.33
2018-08-13T01:33:14.715Z,16.31
2018-08-13T01:34:29.395Z,16.34
2018-08-13T01:35:14.762Z,16.31
2018-08-13T01:36:14.779Z,16.39
2018-08-13T01:37:14.801Z,16.34
2018-08-13T01:38:14.842Z,16.35
2018-08-13T01:39:14.848Z,16.21
2018-08-13T01:40:14.873Z,16.2
2018-08-13T01:41:14.646Z,16.09
2018-08-13T01:42:29.581Z,16.08
2018-08-13T01:43:14.943Z,16.07
2018-08-13T01:44:14.966Z,16.01
2018-08-13T01:46:15.013Z,15.96
2018-08-13T01:47:29.693Z,16.01
2018-08-13T01:48:15.059Z,16.02
2018-08-13T01:49:15.083Z,15.93
2018-08-13T01:50:29.765Z,15.89
2018-08-13T01:51:15.127Z,15.87
2018-08-13T01:52:14.892Z,15.82
2018-08-13T01:53:15.173Z,15.83
2018-08-13T01:54:29.862Z,15.8
2018-08-13T01:55:29.914Z,15.72
2018-08-13T01:56:15.297Z,15.87
2018-08-13T01:57:15.272Z,15.89
2018-08-13T01:58:15.036Z,15.83
2018-08-13T01:59:15.053Z,15.86
2018-08-13T02:00:15.338Z,15.86
2018-08-13T02:01:15.427Z,15.86
2018-08-13T02:02:15.387Z,15.8
2018-08-13T02:03:15.407Z,15.74
2018-08-13T02:04:15.173Z,15.68
2018-08-13T02:05:15.451Z,15.65
2018-08-13T02:06:30.137Z,15.67
2018-08-13T02:07:15.504Z,15.68
2018-08-13T02:08:15.519Z,15.53
2018-08-13T02:10:15.574Z,15.57
2018-08-13T02:11:15.334Z,15.56
2018-08-13T02:12:15.618Z,15.44
2018-08-13T02:13:15.383Z,15.5
2018-08-13T02:14:15.663Z,15.51
2018-08-13T02:15:15.685Z,15.47
2018-08-13T02:16:15.711Z,15.5
2018-08-13T02:17:15.473Z,15.51
2018-08-13T02:18:15.751Z,15.49
2018-08-13T02:19:15.261Z,15.44
2018-08-13T02:20:15.544Z,15.41
2018-08-13T02:21:30.228Z,15.43
2018-08-13T02:23:15.877Z,15.44
2018-08-13T02:24:15.635Z,15.32
2018-08-13T02:26:15.683Z,15.27
2018-08-13T02:27:15.968Z,15.23
2018-08-13T02:28:16.034Z,15.25
2018-08-13T02:29:16.120Z,15.16
2018-08-13T02:30:15.774Z,15.03
2018-08-13T02:31:15.801Z,15.11
2018-08-13T02:32:15.819Z,15.1
2018-08-13T02:33:16.110Z,15.03
2018-08-13T02:34:16.131Z,14.92
2018-08-13T02:35:16.145Z,14.95
2018-08-13T02:36:16.174Z,15.06
2018-08-13T02:37:16.205Z,15.1
2018-08-13T02:38:16.229Z,15.09
2018-08-13T02:39:16.638Z,15.14
2018-08-13T02:40:16.266Z,15.09
2018-08-13T02:41:16.289Z,15.06
2018-08-13T02:42:16.313Z,15.09
2018-08-13T02:43:30.993Z,15.13
2018-08-13T02:44:16.372Z,15.09
2018-08-13T02:45:16.381Z,14.96
2018-08-13T02:46:16.143Z,15.06
2018-08-13T02:47:16.424Z,14.96
2018-08-13T02:48:16.444Z,15.02
2018-08-13T02:49:16.481Z,14.99
2018-08-13T02:50:16.515Z,14.84
2018-08-13T02:51:16.517Z,14.98
2018-08-13T02:52:16.538Z,14.86
2018-08-13T02:53:31.230Z,14.86
2018-08-13T02:54:16.591Z,14.89
2018-08-13T02:55:31.274Z,14.8
2018-08-13T02:57:16.135Z,14.8
2018-08-13T02:58:16.934Z,14.91
2018-08-13T02:59:16.695Z,14.89
2018-08-13T03:00:16.815Z,14.83
2018-08-13T03:01:16.747Z,14.77
2018-08-13T03:03:16.790Z,14.72
2018-08-13T03:04:16.811Z,14.73
2018-08-13T03:05:16.838Z,14.84
2018-08-13T03:06:16.859Z,14.69
2018-08-13T03:07:16.878Z,14.72
2018-08-13T03:08:16.647Z,14.69
2018-08-13T03:09:31.597Z,14.64
2018-08-13T03:10:16.947Z,14.7
2018-08-13T03:11:16.973Z,14.62
2018-08-13T03:13:17.018Z,14.61
2018-08-13T03:14:17.040Z,14.62
2018-08-13T03:15:17.071Z,14.72
2018-08-13T03:16:31.492Z,14.68
2018-08-13T03:17:17.114Z,14.68
2018-08-13T03:18:31.791Z,14.55
2018-08-13T03:19:17.156Z,14.61
2018-08-13T03:20:17.184Z,14.64
2018-08-13T03:21:17.199Z,14.52
2018-08-13T03:22:16.964Z,14.6
2018-08-13T03:25:31.948Z,14.42
2018-08-13T03:26:17.312Z,14.43
2018-08-13T03:27:17.338Z,14.4
2018-08-13T03:28:17.356Z,14.43
2018-08-13T03:29:17.122Z,14.37
2018-08-13T03:30:32.067Z,14.4
2018-08-13T03:31:17.430Z,14.42
2018-08-13T03:32:32.110Z,14.37
2018-08-13T03:33:17.213Z,14.42
2018-08-13T03:34:17.495Z,14.46
2018-08-13T03:35:17.516Z,14.47
2018-08-13T03:36:17.540Z,14.37
2018-08-13T03:37:17.659Z,14.37
2018-08-13T03:38:17.581Z,14.33
2018-08-13T03:39:17.611Z,14.24
2018-08-13T03:40:17.370Z,14.33
2018-08-13T03:41:32.310Z,14.45
2018-08-13T03:42:17.670Z,14.45
2018-08-13T03:43:17.437Z,14.43
2018-08-13T03:44:17.716Z,14.39
2018-08-13T03:45:17.743Z,14.36
2018-08-13T03:46:17.761Z,14.37
2018-08-13T03:47:17.788Z,14.33
2018-08-13T03:48:17.806Z,14.35
2018-08-13T03:49:17.832Z,14.46
2018-08-13T03:50:32.514Z,14.42
2018-08-13T03:51:17.882Z,14.42
2018-08-13T03:52:17.895Z,14.39
2018-08-13T03:53:17.665Z,14.4
2018-08-13T03:54:17.690Z,14.43
2018-08-13T03:55:17.968Z,14.36
2018-08-13T03:56:32.392Z,14.33
2018-08-13T03:58:17.776Z,14.36
2018-08-13T03:59:17.797Z,14.33
2018-08-13T04:00:18.088Z,14.4
2018-08-13T04:01:18.101Z,14.45
2018-08-13T04:02:18.124Z,14.32
2018-08-13T04:03:17.886Z,14.33
2018-08-13T04:04:18.166Z,14.51
2018-08-13T04:05:18.197Z,14.36
2018-08-13T04:06:32.623Z,14.42
2018-08-13T04:07:18.238Z,14.46
2018-08-13T04:08:18.257Z,14.5
2018-08-13T04:09:18.022Z,14.46
2018-08-13T04:10:18.049Z,14.5
2018-08-13T04:11:18.327Z,14.46
2018-08-13T04:12:18.405Z,14.51
2018-08-13T04:13:18.116Z,14.52
2018-08-13T04:14:18.396Z,14.6
2018-08-13T04:15:18.416Z,14.58
2018-08-13T04:16:18.444Z,14.7
2018-08-13T04:17:18.463Z,14.61
2018-08-13T04:18:18.227Z,14.58
2018-08-13T04:19:18.508Z,14.68
2018-08-13T04:20:18.527Z,14.65
2018-08-13T04:21:18.550Z,14.7
2018-08-13T04:22:18.582Z,14.81
2018-08-13T04:23:18.345Z,14.81
2018-08-13T04:24:18.616Z,14.92
2018-08-13T04:25:18.385Z,15.01
2018-08-13T04:26:18.663Z,14.92
2018-08-13T04:27:18.689Z,15.06
2018-08-13T04:28:33.371Z,15.03
2018-08-13T04:29:18.732Z,15.02
2018-08-13T04:31:18.519Z,15.14
2018-08-13T04:32:18.544Z,15.23
2018-08-13T04:33:18.821Z,15.21
2018-08-13T04:34:18.846Z,15.28
2018-08-13T04:35:18.870Z,15.25
2018-08-13T04:36:18.901Z,15.21
2018-08-13T04:37:18.919Z,15.19
2018-08-13T04:38:33.613Z,15.27
2018-08-13T04:39:18.699Z,15.23
2018-08-13T04:40:18.987Z,15.2
2018-08-13T04:41:18.759Z,15.32
2018-08-13T04:42:19.028Z,15.27
2018-08-13T04:43:19.099Z,15.44
2018-08-13T04:44:33.736Z,15.39
2018-08-13T04:45:18.842Z,15.43
2018-08-13T04:46:19.123Z,15.5
2018-08-13T04:47:19.141Z,15.57
2018-08-13T04:48:19.172Z,15.53
2018-08-13T04:49:18.934Z,15.67
2018-08-13T04:50:19.208Z,15.69
2018-08-13T04:51:19.235Z,15.69
2018-08-13T04:52:19.579Z,15.76
2018-08-13T04:53:33.940Z,15.87
2018-08-13T04:54:33.960Z,16
2018-08-13T04:55:19.330Z,16.42
2018-08-13T04:56:19.351Z,17.19
2018-08-13T04:57:34.029Z,18.29
2018-08-13T04:58:19.397Z,18.87
2018-08-13T04:59:19.418Z,19.92
2018-08-13T05:00:34.113Z,20.94
2018-08-13T05:01:19.531Z,21.46
2018-08-13T05:02:19.235Z,22.14
2018-08-13T05:03:19.515Z,22.67
2018-08-13T05:04:19.541Z,23.27
2018-08-13T05:06:19.332Z,24.06
2018-08-13T05:07:19.741Z,24.49
2018-08-13T05:08:34.302Z,24.78
2018-08-13T05:09:19.674Z,25.1
2018-08-13T05:10:34.358Z,25.3
2018-08-13T05:11:19.739Z,25.51
2018-08-13T05:12:19.747Z,25.45
2018-08-13T05:13:19.521Z,25.83
2018-08-13T05:14:19.548Z,26.32
2018-08-13T05:15:19.573Z,26.52
2018-08-13T05:16:34.528Z,26.58
2018-08-13T05:18:19.917Z,27.14
2018-08-13T05:19:19.737Z,27.36
2018-08-13T05:20:19.716Z,27.75
2018-08-13T05:21:20.123Z,28.15
2018-08-13T05:22:19.775Z,28.12
2018-08-13T05:23:20.074Z,28.12
2018-08-13T05:24:19.836Z,28.09
2018-08-13T05:25:20.121Z,28.06
2018-08-13T05:26:34.816Z,28.4
2018-08-13T05:27:34.845Z,28.54
2018-08-13T05:28:20.214Z,28.22
2018-08-13T05:29:20.246Z,27.78
2018-08-13T05:30:20.514Z,27.46
2018-08-13T05:31:34.973Z,27.66
2018-08-13T05:32:20.341Z,28.07
2018-08-13T05:33:20.375Z,28.36
2018-08-13T05:34:20.407Z,28.34
2018-08-13T05:35:20.435Z,28.62
2018-08-13T05:36:20.466Z,29.16
2018-08-13T05:38:20.912Z,29.67
2018-08-13T05:39:35.228Z,30
2018-08-13T05:40:20.598Z,30.19
2018-08-13T05:41:20.629Z,30.42
2018-08-13T05:42:20.664Z,30.72
2018-08-13T05:43:20.692Z,30.57
2018-08-13T05:44:20.722Z,30.16
2018-08-13T05:45:20.758Z,29.52
2018-08-13T05:46:20.535Z,29.57
2018-08-13T05:47:20.834Z,29.6
2018-08-13T05:48:20.603Z,29.49
2018-08-13T05:49:20.891Z,29.41
2018-08-13T05:50:20.922Z,29.49
2018-08-13T05:51:20.960Z,29.39
2018-08-13T05:53:21.023Z,29.55
2018-08-13T05:54:20.801Z,29.87
2018-08-13T05:55:21.091Z,29.8
2018-08-13T05:56:21.126Z,30.32
2018-08-13T05:57:21.167Z,30.45
2018-08-13T05:58:21.201Z,30.57
2018-08-13T05:59:21.227Z,30.75
2018-08-13T06:00:21.262Z,31.09
2018-08-13T06:01:21.295Z,31.09
2018-08-13T06:02:21.329Z,31.2
2018-08-13T06:03:36.027Z,31.13
2018-08-13T06:04:21.396Z,31.46
2018-08-13T06:05:21.537Z,31.85
2018-08-13T06:06:21.487Z,32.38
2018-08-13T06:08:21.545Z,32.6
2018-08-13T06:09:21.567Z,32.37
2018-08-13T06:10:21.605Z,32.44
2018-08-13T06:11:21.993Z,32.03
2018-08-13T06:12:21.681Z,31.88
2018-08-13T06:13:21.715Z,31.8
2018-08-13T06:14:21.750Z,31.89
2018-08-13T06:15:21.785Z,31.91
2018-08-13T06:16:21.817Z,31.7
2018-08-13T06:17:21.597Z,31.16
2018-08-13T06:18:21.895Z,31.06
2018-08-13T06:19:36.590Z,30.37
2018-08-13T06:21:21.998Z,30.77
2018-08-13T06:22:22.645Z,30.91
2018-08-13T06:23:22.067Z,31.07
2018-08-13T06:24:22.249Z,31.02
2018-08-13T06:25:22.146Z,30.94
2018-08-13T06:27:22.210Z,31.06
2018-08-13T06:28:22.395Z,31.1
2018-08-13T06:29:22.278Z,31.29
2018-08-13T06:30:36.721Z,31.46
2018-08-13T06:31:22.352Z,31.65
2018-08-13T06:32:22.126Z,31.72
2018-08-13T06:33:22.420Z,31.62
2018-08-13T06:34:22.454Z,32.06
2018-08-13T06:35:37.158Z,31.85
2018-08-13T06:36:22.580Z,31.7
2018-08-13T06:37:22.110Z,31.35
2018-08-13T06:38:22.605Z,31.84
2018-08-13T06:39:22.641Z,31.63
2018-08-13T06:40:22.416Z,31.85
2018-08-13T06:41:22.706Z,31.89
2018-08-13T06:42:22.483Z,31.89
2018-08-13T06:44:22.862Z,32.51
2018-08-13T06:45:22.854Z,32.88
2018-08-13T06:46:22.894Z,32.89
2018-08-13T06:47:22.923Z,32.97
2018-08-13T06:48:22.961Z,33.14
2018-08-13T06:49:22.740Z,33.66
2018-08-13T06:50:23.040Z,34.21
2018-08-13T06:51:37.740Z,34.56
2018-08-13T06:52:22.849Z,34.73
2018-08-13T06:53:22.887Z,34.1
2018-08-13T06:54:23.180Z,33.94
2018-08-13T06:55:23.220Z,33.69
2018-08-13T06:56:23.258Z,33.91
2018-08-13T06:57:23.295Z,34.05
2018-08-13T06:58:22.814Z,34.1
2018-08-13T06:59:23.381Z,33.94
2018-08-13T07:00:23.403Z,33.66
2018-08-13T07:01:23.187Z,34.21
2018-08-13T07:02:23.531Z,34.73
2018-08-13T07:03:23.529Z,34.47
2018-08-13T07:05:23.334Z,34.17
2018-08-13T07:06:38.037Z,34.27
2018-08-13T07:07:23.411Z,34.35
2018-08-13T07:08:23.457Z,34.44
2018-08-13T07:09:23.482Z,34
2018-08-13T07:10:23.777Z,33.65
2018-08-13T07:12:23.859Z,33.51
2018-08-13T07:13:23.888Z,33.57
2018-08-13T07:14:23.925Z,33.57
2018-08-13T07:15:38.669Z,33.65
2018-08-13T07:17:38.699Z,33.14
2018-08-13T07:18:23.812Z,33.15
2018-08-13T07:19:24.111Z,33.45
2018-08-13T07:20:23.887Z,33.61
2018-08-13T07:21:24.236Z,34.02
2018-08-13T07:22:24.672Z,34.24
2018-08-13T07:23:24.259Z,34.32
2018-08-13T07:24:24.295Z,34.43
2018-08-13T07:25:24.334Z,34.89
2018-08-13T07:26:24.365Z,34.87
2018-08-13T07:27:24.406Z,34.77
2018-08-13T07:28:39.108Z,35.28
2018-08-13T07:29:24.223Z,35.75
2018-08-13T07:30:24.518Z,35.62
2018-08-13T07:31:24.298Z,36.28
2018-08-13T07:32:39.253Z,36.53
2018-08-13T07:33:24.773Z,36.28
2018-08-13T07:34:24.665Z,35.87
2018-08-13T07:35:24.699Z,35.37
2018-08-13T07:36:24.734Z,35.11
2018-08-13T07:37:24.776Z,34.91
2018-08-13T07:38:39.481Z,34.52
2018-08-13T07:39:25.156Z,34.73
2018-08-13T07:41:24.928Z,34.7
2018-08-13T07:42:39.631Z,34.58
2018-08-13T07:43:24.743Z,34.7
2018-08-13T07:44:25.047Z,34.66
2018-08-13T07:45:25.097Z,35.22
2018-08-13T07:46:24.929Z,35.23
2018-08-13T07:47:25.150Z,35.28
2018-08-13T07:48:25.192Z,35.5
2018-08-13T07:49:24.975Z,35.43
2018-08-13T07:50:25.270Z,35.63
2018-08-13T07:51:25.299Z,35.94
2018-08-13T07:52:25.389Z,36.12
2018-08-13T07:53:25.376Z,36.44
2018-08-13T07:54:40.100Z,36.69
2018-08-13T07:55:25.448Z,36.49
2018-08-13T07:56:25.228Z,36.6
2018-08-13T07:57:25.528Z,36.56
2018-08-13T07:58:25.305Z,36.78
2018-08-13T07:59:40.271Z,36.53
2018-08-13T08:00:25.385Z,36.56
2018-08-13T08:01:25.417Z,36.39
2018-08-13T08:02:25.717Z,35.58
2018-08-13T08:03:25.753Z,35.81
2018-08-13T08:04:40.454Z,35.71
2018-08-13T08:05:25.831Z,35.85
2018-08-13T08:06:25.869Z,35.65
2018-08-13T08:07:25.900Z,35.93
2018-08-13T08:09:25.993Z,36.98
2018-08-13T08:10:40.684Z,37.13
2018-08-13T08:11:26.056Z,37.18
2018-08-13T08:12:25.835Z,36.98
2018-08-13T08:13:25.878Z,36.84
2018-08-13T08:14:25.664Z,36.93
2018-08-13T08:15:25.948Z,36.88
2018-08-13T08:16:25.990Z,37.05
2018-08-13T08:17:25.769Z,36.95
2018-08-13T08:18:26.326Z,37.41
2018-08-13T08:19:41.025Z,37.43
2018-08-13T08:20:26.394Z,37.78
2018-08-13T08:22:26.474Z,38.63
2018-08-13T08:23:26.512Z,38.16
2018-08-13T08:24:26.555Z,37.63
2018-08-13T08:25:26.334Z,37.82
2018-08-13T08:26:41.292Z,38.38
2018-08-13T08:27:26.415Z,38.76
2018-08-13T08:28:26.700Z,38.83
2018-08-13T08:29:26.663Z,39.41
2018-08-13T08:30:26.521Z,39.22
2018-08-13T08:31:26.825Z,38.35
2018-08-13T08:32:26.854Z,38.63
2018-08-13T08:33:26.894Z,38.31
2018-08-13T08:34:26.670Z,38.16
2018-08-13T08:35:26.973Z,38.06
2018-08-13T08:36:27.008Z,38.2
2018-08-13T08:37:27.042Z,38.44
2018-08-13T08:38:27.081Z,38.6
2018-08-13T08:39:26.863Z,38.72
2018-08-13T08:40:27.250Z,38.79
2018-08-13T08:41:41.867Z,37.96
2018-08-13T08:42:27.235Z,38
2018-08-13T08:43:27.276Z,38.07
2018-08-13T08:44:27.319Z,37.69
2018-08-13T08:45:27.350Z,37.55
2018-08-13T08:46:27.129Z,37.51
2018-08-13T08:47:27.421Z,37.66
2018-08-13T08:48:27.460Z,38.01
2018-08-13T08:49:42.163Z,38.74
2018-08-13T08:50:27.533Z,38.91
2018-08-13T08:51:27.571Z,39.16
2018-08-13T08:52:27.613Z,39.25
2018-08-13T08:53:27.746Z,39.41
2018-08-13T08:54:27.687Z,39.3
2018-08-13T08:55:27.733Z,39.38
2018-08-13T08:56:27.762Z,38.76
2018-08-13T08:57:27.798Z,38.09
2018-08-13T08:58:27.835Z,37.76
2018-08-13T09:01:27.689Z,36.9
2018-08-13T09:02:27.985Z,36.72
2018-08-13T09:03:28.023Z,36.23
2018-08-13T09:04:28.065Z,35.8
2018-08-13T09:05:28.095Z,35.63
2018-08-13T09:06:42.796Z,35.43
2018-08-13T09:07:28.167Z,35.47
2018-08-13T09:08:28.201Z,35.43
2018-08-13T09:09:27.983Z,35.43
2018-08-13T09:10:28.275Z,35.6
2018-08-13T09:11:28.054Z,35.58
2018-08-13T09:12:28.393Z,35.82
2018-08-13T09:14:28.425Z,37.25
2018-08-13T09:15:28.454Z,37.76
2018-08-13T09:17:28.526Z,36.56
2018-08-13T09:18:28.558Z,36.57
2018-08-13T09:19:28.336Z,36.6
2018-08-13T09:20:28.632Z,37.1
2018-08-13T09:21:28.664Z,37.63
2018-08-13T09:22:43.363Z,37.7
2018-08-13T09:23:28.748Z,38.15
2018-08-13T09:24:28.773Z,38.22
2018-08-13T09:25:28.889Z,37.82
2018-08-13T09:26:28.845Z,37.85
2018-08-13T09:27:28.883Z,38.09
2018-08-13T09:28:28.916Z,37.88
2018-08-13T09:29:43.356Z,37.84
2018-08-13T09:30:28.727Z,37.89
2018-08-13T09:31:28.763Z,38.35
2018-08-13T09:32:28.800Z,38.11
2018-08-13T09:33:29.103Z,37.81
2018-08-13T09:35:29.166Z,37.91
2018-08-13T09:36:28.956Z,38.35
2018-08-13T09:37:29.236Z,38.15
2018-08-13T09:38:29.283Z,38.26
2018-08-13T09:39:29.308Z,38.31
2018-08-13T09:40:29.343Z,38.63
2018-08-13T09:41:29.382Z,38.68
2018-08-13T09:42:29.414Z,38.42
2018-08-13T09:43:29.454Z,38.54
2018-08-13T09:44:29.490Z,38.57
2018-08-13T09:45:44.189Z,38.78
2018-08-13T09:46:29.556Z,38.86
2018-08-13T09:47:29.597Z,39.16
2018-08-13T09:48:29.374Z,39.4
2018-08-13T09:49:29.424Z,39.25
2018-08-13T09:50:29.700Z,38.86
2018-08-13T09:51:29.743Z,38.59
2018-08-13T09:52:29.774Z,38.72
2018-08-13T09:53:29.808Z,38.61
2018-08-13T09:54:29.854Z,38.74
2018-08-13T09:55:44.289Z,38.65
2018-08-13T09:56:29.918Z,38.57
2018-08-13T09:57:29.950Z,38.6
2018-08-13T09:58:29.987Z,37.89
2018-08-13T09:59:29.778Z,37.85
2018-08-13T10:00:30.175Z,37.82
2018-08-13T10:01:44.761Z,38.01
2018-08-13T10:03:30.173Z,38.06
2018-08-13T10:04:30.219Z,38.35
2018-08-13T10:05:30.233Z,38.6
2018-08-13T10:06:30.273Z,38.56
2018-08-13T10:07:30.308Z,38.54
2018-08-13T10:08:30.086Z,38.25
2018-08-13T10:09:30.737Z,38.31
2018-08-13T10:10:30.416Z,38.57
2018-08-13T10:11:30.451Z,38.52
2018-08-13T10:12:30.486Z,38.49
2018-08-13T10:13:30.273Z,38.18
2018-08-13T10:14:30.298Z,37.97
2018-08-13T10:15:30.598Z,38.19
2018-08-13T10:16:45.050Z,38.68
2018-08-13T10:17:30.510Z,39.04
2018-08-13T10:18:30.703Z,39.23
2018-08-13T10:19:30.216Z,39.28
2018-08-13T10:20:30.767Z,39.36
2018-08-13T10:21:30.813Z,39.67
2018-08-13T10:22:30.842Z,39.51
2018-08-13T10:23:30.914Z,39.51
2018-08-13T10:24:30.392Z,39.54
2018-08-13T10:25:30.945Z,39.66
2018-08-13T10:26:30.730Z,39.07
2018-08-13T10:27:45.676Z,38.93
2018-08-13T10:28:30.792Z,38.79
2018-08-13T10:29:31.093Z,38.38
2018-08-13T10:30:31.120Z,37.96
2018-08-13T10:32:31.198Z,37.86
2018-08-13T10:34:31.260Z,37.55
2018-08-13T10:35:30.783Z,37.4
2018-08-13T10:36:31.333Z,37.17
2018-08-13T10:37:31.519Z,36.57
2018-08-13T10:38:31.401Z,36.25
2018-08-13T10:39:31.178Z,36.01
2018-08-13T10:40:31.215Z,36.09
2018-08-13T10:41:31.506Z,36.05
2018-08-13T10:42:31.546Z,36.09
2018-08-13T10:43:31.676Z,35.84
2018-08-13T10:44:46.024Z,35.89
2018-08-13T10:45:31.386Z,35.84
2018-08-13T10:46:31.680Z,35.7
2018-08-13T10:47:31.457Z,35.62
2018-08-13T10:49:31.886Z,35.52
2018-08-13T10:50:31.820Z,35.45
2018-08-13T10:51:31.849Z,35.41
2018-08-13T10:52:31.887Z,35.33
2018-08-13T10:53:31.924Z,34.97
2018-08-13T10:54:31.701Z,34.91
2018-08-13T10:55:31.986Z,34.65
2018-08-13T10:56:46.686Z,34.72
2018-08-13T10:57:31.543Z,34.84
2018-08-13T10:58:32.092Z,34.99
2018-08-13T10:59:32.127Z,34.87
2018-08-13T11:00:31.896Z,34.64
2018-08-13T11:01:31.932Z,34.46
2018-08-13T11:02:32.224Z,34.47
2018-08-13T11:04:46.957Z,34.8
2018-08-13T11:05:32.075Z,34.97
2018-08-13T11:06:32.364Z,35.31
2018-08-13T11:07:32.407Z,35.45
2018-08-13T11:08:32.166Z,35.58
2018-08-13T11:09:32.460Z,35.59
2018-08-13T11:10:32.435Z,35.58
2018-08-13T11:11:32.526Z,35.47
2018-08-13T11:12:32.560Z,35.4
2018-08-13T11:14:47.284Z,35.37
2018-08-13T11:15:32.400Z,35.38
2018-08-13T11:16:32.691Z,35.55
2018-08-13T11:17:32.467Z,35.71
2018-08-13T11:18:32.506Z,35.85
2018-08-13T11:19:32.797Z,35.44
2018-08-13T11:20:47.482Z,35.23
2018-08-13T11:21:47.541Z,35.11
2018-08-13T11:22:32.631Z,35.26
2018-08-13T11:24:32.958Z,35.36
2018-08-13T11:25:33.188Z,35.25
2018-08-13T11:26:33.016Z,35.19
2018-08-13T11:27:32.794Z,35.04
2018-08-13T11:28:33.169Z,34.97
2018-08-13T11:29:33.115Z,34.27
2018-08-13T11:30:33.157Z,34.32
2018-08-13T11:31:33.183Z,34.66
2018-08-13T11:32:32.956Z,34.91
2018-08-13T11:33:33.254Z,34.84
2018-08-13T11:34:33.022Z,34.8
2018-08-13T11:35:33.055Z,34.82
2018-08-13T11:36:48.013Z,34.82
2018-08-13T11:37:33.122Z,34.84
2018-08-13T11:38:33.415Z,35.02
2018-08-13T11:40:33.623Z,35.02
2018-08-13T11:41:33.509Z,35.03
2018-08-13T11:42:33.543Z,34.88
2018-08-13T11:43:33.580Z,34.69
2018-08-13T11:44:33.611Z,34.89
2018-08-13T11:45:33.652Z,35.06
2018-08-13T11:46:33.804Z,35.02
2018-08-13T11:47:33.185Z,35.1
2018-08-13T11:48:33.269Z,35.03
2018-08-13T11:49:33.773Z,34.92
2018-08-13T11:52:34.073Z,35.06
2018-08-13T11:53:33.899Z,35.03
2018-08-13T11:54:33.937Z,34.8
2018-08-13T11:55:33.960Z,34.82
2018-08-13T11:56:34.224Z,34.64
2018-08-13T11:57:34.024Z,34.77
2018-08-13T11:58:34.059Z,34.99
2018-08-13T11:59:48.497Z,34.97
2018-08-13T12:00:34.128Z,34.99
2018-08-13T12:01:33.905Z,35.07
2018-08-13T12:02:34.189Z,35.03
2018-08-13T12:03:34.226Z,34.96
2018-08-13T12:04:34.248Z,34.87
2018-08-13T12:05:34.023Z,34.85
2018-08-13T12:06:34.316Z,34.97
2018-08-13T12:08:49.204Z,34.47
2018-08-13T12:09:49.097Z,34.59
2018-08-13T12:10:34.442Z,34.84
2018-08-13T12:11:34.476Z,35
2018-08-13T12:12:49.173Z,35.28
2018-08-13T12:13:34.538Z,35.28
2018-08-13T12:14:34.309Z,35.41
2018-08-13T12:15:34.613Z,35.33
2018-08-13T12:16:34.632Z,35.28
2018-08-13T12:19:34.952Z,35.26
2018-08-13T12:20:34.803Z,35.29
2018-08-13T12:21:34.795Z,35.33
2018-08-13T12:22:34.825Z,35.45
2018-08-13T12:23:49.519Z,35.47
2018-08-13T12:24:34.893Z,35.15
2018-08-13T12:25:34.924Z,35.25
2018-08-13T12:27:35.082Z,34.66
2018-08-13T12:28:34.760Z,34.66
2018-08-13T12:29:34.796Z,34.75
2018-08-13T12:30:35.081Z,34.78
2018-08-13T12:31:35.113Z,34.78
2018-08-13T12:32:34.888Z,34.92
2018-08-13T12:33:35.190Z,34.8
2018-08-13T12:34:35.211Z,34.69
2018-08-13T12:35:35.241Z,34.89
2018-08-13T12:36:35.273Z,34.89
2018-08-13T12:37:35.051Z,34.84
2018-08-13T12:38:35.076Z,34.89
2018-08-13T12:39:50.032Z,35.04
2018-08-13T12:40:35.400Z,35.11
2018-08-13T12:42:35.207Z,34.8
2018-08-13T12:43:35.235Z,34.7
2018-08-13T12:44:35.527Z,34.7
2018-08-13T12:45:35.557Z,34.66
2018-08-13T12:46:35.587Z,34.58
2018-08-13T12:47:35.370Z,34.39
2018-08-13T12:48:35.403Z,34.24
2018-08-13T12:49:50.349Z,34.31
2018-08-13T12:50:35.459Z,34.47
2018-08-13T12:51:50.423Z,34.61
2018-08-13T12:52:35.529Z,34.78
2018-08-13T12:53:35.812Z,34.73
2018-08-13T12:54:35.844Z,34.77
2018-08-13T12:55:50.538Z,34.85
2018-08-13T12:56:35.649Z,34.88
2018-08-13T12:57:35.686Z,34.99
2018-08-13T12:59:36.006Z,35.09
2018-08-13T13:00:36.037Z,35.14
2018-08-13T13:01:35.808Z,35.03
2018-08-13T13:02:35.843Z,35.23
2018-08-13T13:03:36.135Z,35.41
2018-08-13T13:04:36.164Z,35.48
2018-08-13T13:05:50.855Z,35.29
2018-08-13T13:06:36.225Z,35.16
2018-08-13T13:07:36.256Z,35.07
2018-08-13T13:08:35.774Z,35.28
2018-08-13T13:09:36.325Z,35.45
2018-08-13T13:10:36.357Z,35.43
2018-08-13T13:11:51.047Z,35.36
2018-08-13T13:12:36.158Z,35.53
2018-08-13T13:13:51.121Z,35.58
2018-08-13T13:14:36.241Z,35.45
2018-08-13T13:15:36.571Z,35.33
2018-08-13T13:16:36.606Z,35.43
2018-08-13T13:17:36.578Z,35.56
2018-08-13T13:18:36.610Z,35.58
2018-08-13T13:19:51.306Z,35.5
2018-08-13T13:20:36.594Z,35.37
2018-08-13T13:21:36.703Z,35.38
2018-08-13T13:22:36.737Z,35.29
2018-08-13T13:23:36.771Z,35.21
2018-08-13T13:24:36.546Z,35.28
2018-08-13T13:25:36.838Z,35.41
2018-08-13T13:26:51.270Z,35.37
2018-08-13T13:29:36.962Z,35.43
2018-08-13T13:30:36.991Z,35.14
2018-08-13T13:31:37.037Z,35.09
2018-08-13T13:32:37.055Z,35.14
2018-08-13T13:33:37.088Z,35.06
2018-08-13T13:34:37.325Z,35.18
2018-08-13T13:35:37.157Z,35.29
2018-08-13T13:36:36.925Z,35.4
2018-08-13T13:37:37.217Z,35.26
2018-08-13T13:38:37.000Z,35.25
2018-08-13T13:39:37.280Z,35.38
2018-08-13T13:40:37.505Z,35.16
2018-08-13T13:41:37.089Z,35.16
2018-08-13T13:42:37.217Z,35.16
2018-08-13T13:43:37.147Z,35.06
2018-08-13T13:44:37.232Z,34.99
2018-08-13T13:45:37.471Z,34.96
2018-08-13T13:46:37.516Z,35.03
2018-08-13T13:47:37.539Z,35.03
2018-08-13T13:48:37.567Z,35
2018-08-13T13:49:37.600Z,35.06
2018-08-13T13:50:52.295Z,34.84
2018-08-13T13:51:37.860Z,34.87